sensor_id;sensor_type;location;lat;lon;timestamp;temperature;humidity
20288;DHT22;10303;51.960;8.372;2023-10-19T00:01:10;14.40;99.90
20288;DHT22;10303;51.960;8.372;2023-10-19T00:03:37;14.40;99.90
20288;DHT22;10303;51.960;8.372;2023-10-19T00:06:03;14.40;99.90
20288;DHT22;10303;51.960;8.372;2023-10-19T00:08:31;14.30;99.90
20288;DHT22;10303;51.960;8.372;2023-10-19T00:11:10;14.40;99.90
20288;DHT22;10303;51.960;8.372;2023-10-19T00:13:47;14.30;99.90
20288;DHT22;10303;51.960;8.372;2023-10-19T00:16:16;14.30;99.90
20288;DHT22;10303;51.960;8.372;2023-10-19T00:18:43;14.30;99.90
20288;DHT22;10303;51.960;8.372;2023-10-19T00:21:10;14.20;99.90
20288;DHT22;10303;51.960;8.372;2023-10-19T00:23:46;14.30;99.90
20288;DHT22;10303;51.960;8.372;2023-10-19T00:26:13;14.30;99.90
20288;DHT22;10303;51.960;8.372;2023-10-19T00:28:53;14.20;99.90
20288;DHT22;10303;51.960;8.372;2023-10-19T00:31:22;14.20;99.90
20288;DHT22;10303;51.960;8.372;2023-10-19T00:33:49;14.20;99.90
20288;DHT22;10303;51.960;8.372;2023-10-19T00:36:20;14.10;99.90
20288;DHT22;10303;51.960;8.372;2023-10-19T00:38:47;14.10;99.90
20288;DHT22;10303;51.960;8.372;2023-10-19T00:41:18;14.10;99.90
20288;DHT22;10303;51.960;8.372;2023-10-19T00:43:56;14.10;99.90
20288;DHT22;10303;51.960;8.372;2023-10-19T00:46:38;14.10;99.90
20288;DHT22;10303;51.960;8.372;2023-10-19T00:49:10;14.10;99.90
20288;DHT22;10303;51.960;8.372;2023-10-19T00:51:50;14.00;99.90
20288;DHT22;10303;51.960;8.372;2023-10-19T00:57:19;14.00;99.90
20288;DHT22;10303;51.960;8.372;2023-10-19T00:59:58;14.00;99.90
20288;DHT22;10303;51.960;8.372;2023-10-19T01:02:47;14.00;99.90
20288;DHT22;10303;51.960;8.372;2023-10-19T01:05:16;14.00;99.90
20288;DHT22;10303;51.960;8.372;2023-10-19T01:07:47;13.90;99.90
20288;DHT22;10303;51.960;8.372;2023-10-19T01:10:21;13.90;99.90
20288;DHT22;10303;51.960;8.372;2023-10-19T01:12:49;13.90;99.90
20288;DHT22;10303;51.960;8.372;2023-10-19T01:15:19;13.90;99.90
20288;DHT22;10303;51.960;8.372;2023-10-19T01:17:58;13.90;99.90
20288;DHT22;10303;51.960;8.372;2023-10-19T01:20:29;13.90;99.90
20288;DHT22;10303;51.960;8.372;2023-10-19T01:22:58;13.80;99.90
20288;DHT22;10303;51.960;8.372;2023-10-19T01:25:45;13.80;99.90
20288;DHT22;10303;51.960;8.372;2023-10-19T01:31:16;13.80;99.90
20288;DHT22;10303;51.960;8.372;2023-10-19T01:33:48;13.80;99.90
20288;DHT22;10303;51.960;8.372;2023-10-19T01:36:14;13.80;99.90
20288;DHT22;10303;51.960;8.372;2023-10-19T01:38:42;13.80;99.90
20288;DHT22;10303;51.960;8.372;2023-10-19T01:41:09;13.80;99.90
20288;DHT22;10303;51.960;8.372;2023-10-19T01:43:46;13.80;99.90
20288;DHT22;10303;51.960;8.372;2023-10-19T01:46:15;13.70;99.90
20288;DHT22;10303;51.960;8.372;2023-10-19T01:48:52;13.80;99.90
20288;DHT22;10303;51.960;8.372;2023-10-19T01:51:22;13.80;99.90
20288;DHT22;10303;51.960;8.372;2023-10-19T01:53:49;13.80;99.90
20288;DHT22;10303;51.960;8.372;2023-10-19T01:56:16;13.70;99.90
20288;DHT22;10303;51.960;8.372;2023-10-19T01:58:45;13.70;99.90
20288;DHT22;10303;51.960;8.372;2023-10-19T02:01:15;13.70;99.90
20288;DHT22;10303;51.960;8.372;2023-10-19T02:03:48;13.70;99.90
20288;DHT22;10303;51.960;8.372;2023-10-19T02:06:21;13.70;99.90
20288;DHT22;10303;51.960;8.372;2023-10-19T02:08:55;13.70;99.90
20288;DHT22;10303;51.960;8.372;2023-10-19T02:11:23;13.70;99.90
20288;DHT22;10303;51.960;8.372;2023-10-19T02:13:56;13.70;99.90
20288;DHT22;10303;51.960;8.372;2023-10-19T02:16:30;13.70;99.90
20288;DHT22;10303;51.960;8.372;2023-10-19T02:18:58;13.70;99.90
20288;DHT22;10303;51.960;8.372;2023-10-19T02:21:26;13.70;99.90
20288;DHT22;10303;51.960;8.372;2023-10-19T02:23:57;13.70;99.90
20288;DHT22;10303;51.960;8.372;2023-10-19T02:26:25;13.70;99.90
20288;DHT22;10303;51.960;8.372;2023-10-19T02:28:56;13.70;99.90
20288;DHT22;10303;51.960;8.372;2023-10-19T02:31:25;13.80;99.90
20288;DHT22;10303;51.960;8.372;2023-10-19T02:33:54;13.80;99.90
20288;DHT22;10303;51.960;8.372;2023-10-19T02:36:27;13.80;99.90
20288;DHT22;10303;51.960;8.372;2023-10-19T02:39:02;13.80;99.90
20288;DHT22;10303;51.960;8.372;2023-10-19T02:41:41;13.80;99.90
20288;DHT22;10303;51.960;8.372;2023-10-19T02:44:20;13.80;99.90
20288;DHT22;10303;51.960;8.372;2023-10-19T02:46:54;13.80;99.90
20288;DHT22;10303;51.960;8.372;2023-10-19T02:49:34;13.80;99.90
20288;DHT22;10303;51.960;8.372;2023-10-19T02:52:04;13.80;99.90
20288;DHT22;10303;51.960;8.372;2023-10-19T02:54:30;13.80;99.90
20288;DHT22;10303;51.960;8.372;2023-10-19T02:57:00;13.90;99.90
20288;DHT22;10303;51.960;8.372;2023-10-19T02:59:27;13.90;99.90
20288;DHT22;10303;51.960;8.372;2023-10-19T03:01:59;13.90;99.90
20288;DHT22;10303;51.960;8.372;2023-10-19T03:04:46;13.90;99.90
20288;DHT22;10303;51.960;8.372;2023-10-19T03:07:12;13.90;99.90
20288;DHT22;10303;51.960;8.372;2023-10-19T03:09:38;13.90;99.90
20288;DHT22;10303;51.960;8.372;2023-10-19T03:12:05;13.90;99.90
20288;DHT22;10303;51.960;8.372;2023-10-19T03:14:36;13.90;99.90
20288;DHT22;10303;51.960;8.372;2023-10-19T03:17:02;13.90;99.90
20288;DHT22;10303;51.960;8.372;2023-10-19T03:19:29;13.90;99.90
20288;DHT22;10303;51.960;8.372;2023-10-19T03:21:55;13.90;99.90
20288;DHT22;10303;51.960;8.372;2023-10-19T03:24:26;13.90;99.90
20288;DHT22;10303;51.960;8.372;2023-10-19T03:27:05;13.90;99.90
20288;DHT22;10303;51.960;8.372;2023-10-19T03:29:43;14.00;99.90
20288;DHT22;10303;51.960;8.372;2023-10-19T03:32:28;14.00;99.90
20288;DHT22;10303;51.960;8.372;2023-10-19T03:35:01;14.00;99.90
20288;DHT22;10303;51.960;8.372;2023-10-19T03:37:28;14.00;99.90
20288;DHT22;10303;51.960;8.372;2023-10-19T03:39:57;14.00;99.90
20288;DHT22;10303;51.960;8.372;2023-10-19T03:42:24;14.00;99.90
20288;DHT22;10303;51.960;8.372;2023-10-19T03:44:58;14.00;99.90
20288;DHT22;10303;51.960;8.372;2023-10-19T03:47:26;14.10;99.90
20288;DHT22;10303;51.960;8.372;2023-10-19T03:50:03;14.10;99.90
20288;DHT22;10303;51.960;8.372;2023-10-19T03:52:35;14.10;99.90
20288;DHT22;10303;51.960;8.372;2023-10-19T03:55:05;14.10;99.90
20288;DHT22;10303;51.960;8.372;2023-10-19T03:57:43;14.10;99.90
20288;DHT22;10303;51.960;8.372;2023-10-19T04:00:16;14.20;99.90
20288;DHT22;10303;51.960;8.372;2023-10-19T04:02:47;14.20;99.90
20288;DHT22;10303;51.960;8.372;2023-10-19T04:05:13;14.20;99.90
20288;DHT22;10303;51.960;8.372;2023-10-19T04:07:48;14.20;99.90
20288;DHT22;10303;51.960;8.372;2023-10-19T04:10:21;14.20;99.90
20288;DHT22;10303;51.960;8.372;2023-10-19T04:13:04;14.30;99.90
20288;DHT22;10303;51.960;8.372;2023-10-19T04:15:35;14.30;99.90
20288;DHT22;10303;51.960;8.372;2023-10-19T04:18:03;14.30;99.90
20288;DHT22;10303;51.960;8.372;2023-10-19T04:20:37;14.30;99.90
20288;DHT22;10303;51.960;8.372;2023-10-19T04:23:09;14.30;99.90
20288;DHT22;10303;51.960;8.372;2023-10-19T04:25:41;14.30;99.90
20288;DHT22;10303;51.960;8.372;2023-10-19T04:28:07;14.40;99.90
20288;DHT22;10303;51.960;8.372;2023-10-19T04:30:34;14.40;99.90
20288;DHT22;10303;51.960;8.372;2023-10-19T04:33:02;14.40;99.90
20288;DHT22;10303;51.960;8.372;2023-10-19T04:35:28;14.40;99.90
20288;DHT22;10303;51.960;8.372;2023-10-19T04:37:59;14.40;99.90
20288;DHT22;10303;51.960;8.372;2023-10-19T04:40:27;14.40;99.90
20288;DHT22;10303;51.960;8.372;2023-10-19T04:42:54;14.40;99.90
20288;DHT22;10303;51.960;8.372;2023-10-19T04:45:23;14.40;99.90
20288;DHT22;10303;51.960;8.372;2023-10-19T04:47:53;14.50;99.90
20288;DHT22;10303;51.960;8.372;2023-10-19T04:50:20;14.50;99.90
20288;DHT22;10303;51.960;8.372;2023-10-19T04:52:47;14.50;99.90
20288;DHT22;10303;51.960;8.372;2023-10-19T04:55:13;14.50;99.90
20288;DHT22;10303;51.960;8.372;2023-10-19T04:57:39;14.50;99.90
20288;DHT22;10303;51.960;8.372;2023-10-19T05:00:05;14.50;99.90
20288;DHT22;10303;51.960;8.372;2023-10-19T05:02:33;14.50;99.90
20288;DHT22;10303;51.960;8.372;2023-10-19T05:04:59;14.50;99.90
20288;DHT22;10303;51.960;8.372;2023-10-19T05:07:25;14.60;99.90
20288;DHT22;10303;51.960;8.372;2023-10-19T05:09:52;14.60;99.90
20288;DHT22;10303;51.960;8.372;2023-10-19T05:12:19;14.60;99.90
20288;DHT22;10303;51.960;8.372;2023-10-19T05:14:45;14.60;99.90
20288;DHT22;10303;51.960;8.372;2023-10-19T05:17:11;14.70;99.90
20288;DHT22;10303;51.960;8.372;2023-10-19T05:19:38;14.70;99.90
20288;DHT22;10303;51.960;8.372;2023-10-19T05:22:08;14.70;99.90
20288;DHT22;10303;51.960;8.372;2023-10-19T05:24:35;14.70;99.90
20288;DHT22;10303;51.960;8.372;2023-10-19T05:27:02;14.70;99.90
20288;DHT22;10303;51.960;8.372;2023-10-19T05:29:31;14.70;99.90
20288;DHT22;10303;51.960;8.372;2023-10-19T05:31:58;14.80;99.90
20288;DHT22;10303;51.960;8.372;2023-10-19T05:34:25;14.80;99.90
20288;DHT22;10303;51.960;8.372;2023-10-19T05:36:54;14.80;99.90
20288;DHT22;10303;51.960;8.372;2023-10-19T05:39:24;14.80;99.90
20288;DHT22;10303;51.960;8.372;2023-10-19T05:41:56;14.90;99.90
20288;DHT22;10303;51.960;8.372;2023-10-19T05:44:24;14.90;99.90
20288;DHT22;10303;51.960;8.372;2023-10-19T05:46:51;14.90;99.90
20288;DHT22;10303;51.960;8.372;2023-10-19T05:49:16;14.90;99.90
20288;DHT22;10303;51.960;8.372;2023-10-19T05:51:43;14.90;99.90
20288;DHT22;10303;51.960;8.372;2023-10-19T05:54:10;14.90;99.90
20288;DHT22;10303;51.960;8.372;2023-10-19T05:56:38;15.00;99.90
20288;DHT22;10303;51.960;8.372;2023-10-19T05:59:04;15.00;99.90
20288;DHT22;10303;51.960;8.372;2023-10-19T06:01:31;15.00;99.90
20288;DHT22;10303;51.960;8.372;2023-10-19T06:03:57;15.00;99.90
20288;DHT22;10303;51.960;8.372;2023-10-19T06:06:23;15.10;99.90
20288;DHT22;10303;51.960;8.372;2023-10-19T06:08:49;15.10;99.90
20288;DHT22;10303;51.960;8.372;2023-10-19T06:11:19;15.10;99.90
20288;DHT22;10303;51.960;8.372;2023-10-19T06:13:46;15.10;99.90
20288;DHT22;10303;51.960;8.372;2023-10-19T06:16:12;15.10;99.90
20288;DHT22;10303;51.960;8.372;2023-10-19T06:18:38;15.10;99.90
20288;DHT22;10303;51.960;8.372;2023-10-19T06:21:04;15.20;99.90
20288;DHT22;10303;51.960;8.372;2023-10-19T06:23:30;15.20;99.90
20288;DHT22;10303;51.960;8.372;2023-10-19T06:25:57;15.20;99.90
20288;DHT22;10303;51.960;8.372;2023-10-19T06:28:23;15.30;99.90
20288;DHT22;10303;51.960;8.372;2023-10-19T06:30:49;15.30;99.90
20288;DHT22;10303;51.960;8.372;2023-10-19T06:33:16;15.30;99.90
20288;DHT22;10303;51.960;8.372;2023-10-19T06:35:42;15.30;99.90
20288;DHT22;10303;51.960;8.372;2023-10-19T06:38:08;15.40;99.90
20288;DHT22;10303;51.960;8.372;2023-10-19T06:40:35;15.40;99.90
20288;DHT22;10303;51.960;8.372;2023-10-19T06:43:04;15.40;99.90
20288;DHT22;10303;51.960;8.372;2023-10-19T06:45:31;15.40;99.90
20288;DHT22;10303;51.960;8.372;2023-10-19T06:47:58;15.40;99.90
20288;DHT22;10303;51.960;8.372;2023-10-19T06:50:29;15.50;99.90
20288;DHT22;10303;51.960;8.372;2023-10-19T06:52:55;15.50;99.90
20288;DHT22;10303;51.960;8.372;2023-10-19T06:55:21;15.50;99.90
20288;DHT22;10303;51.960;8.372;2023-10-19T06:57:52;15.50;99.90
20288;DHT22;10303;51.960;8.372;2023-10-19T07:00:21;15.60;99.90
20288;DHT22;10303;51.960;8.372;2023-10-19T07:02:51;15.60;99.90
20288;DHT22;10303;51.960;8.372;2023-10-19T07:05:19;15.60;99.90
20288;DHT22;10303;51.960;8.372;2023-10-19T07:07:56;15.70;99.90
20288;DHT22;10303;51.960;8.372;2023-10-19T07:10:24;15.70;99.90
20288;DHT22;10303;51.960;8.372;2023-10-19T07:12:53;15.70;99.90
20288;DHT22;10303;51.960;8.372;2023-10-19T07:15:20;15.80;99.90
20288;DHT22;10303;51.960;8.372;2023-10-19T07:17:49;15.80;99.90
20288;DHT22;10303;51.960;8.372;2023-10-19T07:20:18;15.80;99.90
20288;DHT22;10303;51.960;8.372;2023-10-19T07:23:04;15.90;99.90
20288;DHT22;10303;51.960;8.372;2023-10-19T07:30:56;15.90;99.90
20288;DHT22;10303;51.960;8.372;2023-10-19T07:33:23;16.10;99.90
20288;DHT22;10303;51.960;8.372;2023-10-19T07:35:50;16.10;99.90
20288;DHT22;10303;51.960;8.372;2023-10-19T07:38:25;16.10;99.90
20288;DHT22;10303;51.960;8.372;2023-10-19T07:40:52;16.10;99.90
20288;DHT22;10303;51.960;8.372;2023-10-19T07:43:18;16.20;99.90
20288;DHT22;10303;51.960;8.372;2023-10-19T07:45:46;16.20;99.90
20288;DHT22;10303;51.960;8.372;2023-10-19T07:48:13;16.20;99.90
20288;DHT22;10303;51.960;8.372;2023-10-19T07:50:40;16.30;99.90
20288;DHT22;10303;51.960;8.372;2023-10-19T07:53:06;16.30;99.90
20288;DHT22;10303;51.960;8.372;2023-10-19T07:55:33;16.40;99.90
20288;DHT22;10303;51.960;8.372;2023-10-19T07:57:59;16.50;99.90
20288;DHT22;10303;51.960;8.372;2023-10-19T08:00:26;16.50;99.90
20288;DHT22;10303;51.960;8.372;2023-10-19T08:02:55;16.50;99.90
20288;DHT22;10303;51.960;8.372;2023-10-19T08:05:21;16.60;99.90
20288;DHT22;10303;51.960;8.372;2023-10-19T08:07:48;16.60;99.90
20288;DHT22;10303;51.960;8.372;2023-10-19T08:10:15;16.70;99.90
20288;DHT22;10303;51.960;8.372;2023-10-19T08:12:43;16.80;99.90
20288;DHT22;10303;51.960;8.372;2023-10-19T08:15:13;16.80;99.90
20288;DHT22;10303;51.960;8.372;2023-10-19T08:17:45;16.90;99.90
20288;DHT22;10303;51.960;8.372;2023-10-19T08:20:13;16.90;99.90
20288;DHT22;10303;51.960;8.372;2023-10-19T08:22:56;17.00;99.90
20288;DHT22;10303;51.960;8.372;2023-10-19T08:25:24;17.00;99.90
20288;DHT22;10303;51.960;8.372;2023-10-19T08:27:54;17.10;99.90
20288;DHT22;10303;51.960;8.372;2023-10-19T08:30:23;17.10;99.90
20288;DHT22;10303;51.960;8.372;2023-10-19T08:32:51;17.20;99.90
20288;DHT22;10303;51.960;8.372;2023-10-19T08:35:20;17.30;99.90
20288;DHT22;10303;51.960;8.372;2023-10-19T08:37:50;17.30;99.90
20288;DHT22;10303;51.960;8.372;2023-10-19T08:40:20;17.40;99.90
20288;DHT22;10303;51.960;8.372;2023-10-19T08:42:48;17.50;99.90
20288;DHT22;10303;51.960;8.372;2023-10-19T08:45:16;17.60;99.90
20288;DHT22;10303;51.960;8.372;2023-10-19T08:47:56;17.60;99.90
20288;DHT22;10303;51.960;8.372;2023-10-19T08:50:29;17.70;99.90
20288;DHT22;10303;51.960;8.372;2023-10-19T08:52:58;17.80;99.90
20288;DHT22;10303;51.960;8.372;2023-10-19T08:55:25;17.80;99.90
20288;DHT22;10303;51.960;8.372;2023-10-19T08:57:52;17.90;99.90
20288;DHT22;10303;51.960;8.372;2023-10-19T09:00:19;18.00;99.90
20288;DHT22;10303;51.960;8.372;2023-10-19T09:02:52;18.00;99.90
20288;DHT22;10303;51.960;8.372;2023-10-19T09:05:20;18.10;99.90
20288;DHT22;10303;51.960;8.372;2023-10-19T09:07:49;18.20;99.90
20288;DHT22;10303;51.960;8.372;2023-10-19T09:13:00;18.30;99.90
20288;DHT22;10303;51.960;8.372;2023-10-19T09:15:31;18.30;99.90
20288;DHT22;10303;51.960;8.372;2023-10-19T09:18:14;18.40;99.90
20288;DHT22;10303;51.960;8.372;2023-10-19T09:20:51;18.40;99.90
20288;DHT22;10303;51.960;8.372;2023-10-19T09:23:22;18.50;99.90
20288;DHT22;10303;51.960;8.372;2023-10-19T09:25:50;18.60;99.90
20288;DHT22;10303;51.960;8.372;2023-10-19T09:28:18;18.60;99.90
20288;DHT22;10303;51.960;8.372;2023-10-19T09:30:46;18.60;99.90
20288;DHT22;10303;51.960;8.372;2023-10-19T09:33:16;18.70;99.90
20288;DHT22;10303;51.960;8.372;2023-10-19T09:35:46;18.70;99.90
20288;DHT22;10303;51.960;8.372;2023-10-19T09:38:18;18.80;99.90
20288;DHT22;10303;51.960;8.372;2023-10-19T09:40:51;18.90;99.90
20288;DHT22;10303;51.960;8.372;2023-10-19T09:43:34;18.90;99.90
20288;DHT22;10303;51.960;8.372;2023-10-19T09:46:06;18.90;99.90
20288;DHT22;10303;51.960;8.372;2023-10-19T09:48:44;19.00;99.90
20288;DHT22;10303;51.960;8.372;2023-10-19T09:51:13;19.10;99.90
20288;DHT22;10303;51.960;8.372;2023-10-19T09:53:53;19.10;99.90
20288;DHT22;10303;51.960;8.372;2023-10-19T09:56:30;19.10;99.90
20288;DHT22;10303;51.960;8.372;2023-10-19T10:02:07;19.30;99.90
20288;DHT22;10303;51.960;8.372;2023-10-19T10:04:38;19.30;99.90
20288;DHT22;10303;51.960;8.372;2023-10-19T10:07:07;19.40;99.90
20288;DHT22;10303;51.960;8.372;2023-10-19T10:09:41;19.40;99.90
20288;DHT22;10303;51.960;8.372;2023-10-19T10:12:16;19.50;99.90
20288;DHT22;10303;51.960;8.372;2023-10-19T10:17:28;19.60;99.90
20288;DHT22;10303;51.960;8.372;2023-10-19T10:19:56;19.60;99.90
20288;DHT22;10303;51.960;8.372;2023-10-19T10:22:45;19.70;99.90
20288;DHT22;10303;51.960;8.372;2023-10-19T10:25:45;19.80;99.90
20288;DHT22;10303;51.960;8.372;2023-10-19T10:28:14;19.90;99.90
20288;DHT22;10303;51.960;8.372;2023-10-19T10:31:09;19.90;99.90
20288;DHT22;10303;51.960;8.372;2023-10-19T10:33:43;20.00;99.90
20288;DHT22;10303;51.960;8.372;2023-10-19T10:36:15;20.10;99.90
20288;DHT22;10303;51.960;8.372;2023-10-19T10:38:43;20.10;99.90
20288;DHT22;10303;51.960;8.372;2023-10-19T10:41:10;20.20;99.90
20288;DHT22;10303;51.960;8.372;2023-10-19T10:43:55;20.20;99.90
20288;DHT22;10303;51.960;8.372;2023-10-19T10:46:26;20.20;99.90
20288;DHT22;10303;51.960;8.372;2023-10-19T10:48:54;20.30;99.90
20288;DHT22;10303;51.960;8.372;2023-10-19T10:51:25;20.30;99.90
20288;DHT22;10303;51.960;8.372;2023-10-19T10:53:55;20.40;99.90
20288;DHT22;10303;51.960;8.372;2023-10-19T10:56:23;20.40;99.90
20288;DHT22;10303;51.960;8.372;2023-10-19T10:58:50;20.40;99.90
20288;DHT22;10303;51.960;8.372;2023-10-19T11:01:28;20.50;99.90
20288;DHT22;10303;51.960;8.372;2023-10-19T11:04:08;20.50;99.90
20288;DHT22;10303;51.960;8.372;2023-10-19T11:06:52;20.50;99.90
20288;DHT22;10303;51.960;8.372;2023-10-19T11:09:21;20.60;99.90
20288;DHT22;10303;51.960;8.372;2023-10-19T11:11:47;20.70;99.90
20288;DHT22;10303;51.960;8.372;2023-10-19T11:14:15;20.70;99.90
20288;DHT22;10303;51.960;8.372;2023-10-19T11:16:41;20.80;99.90
20288;DHT22;10303;51.960;8.372;2023-10-19T11:19:09;20.80;99.90
20288;DHT22;10303;51.960;8.372;2023-10-19T11:21:38;20.90;99.90
20288;DHT22;10303;51.960;8.372;2023-10-19T11:24:27;21.00;99.90
20288;DHT22;10303;51.960;8.372;2023-10-19T11:26:58;21.10;99.90
20288;DHT22;10303;51.960;8.372;2023-10-19T11:29:24;21.20;99.90
20288;DHT22;10303;51.960;8.372;2023-10-19T11:31:57;21.20;99.90
20288;DHT22;10303;51.960;8.372;2023-10-19T11:34:25;21.20;99.90
20288;DHT22;10303;51.960;8.372;2023-10-19T11:36:58;21.30;99.90
20288;DHT22;10303;51.960;8.372;2023-10-19T11:39:30;21.40;99.90
20288;DHT22;10303;51.960;8.372;2023-10-19T11:41:56;21.50;99.90
20288;DHT22;10303;51.960;8.372;2023-10-19T11:44:22;21.50;99.90
20288;DHT22;10303;51.960;8.372;2023-10-19T11:46:48;21.60;99.90
20288;DHT22;10303;51.960;8.372;2023-10-19T11:49:14;21.60;99.90
20288;DHT22;10303;51.960;8.372;2023-10-19T11:51:40;21.70;99.90
20288;DHT22;10303;51.960;8.372;2023-10-19T11:54:06;21.70;99.90
20288;DHT22;10303;51.960;8.372;2023-10-19T11:56:32;21.80;99.90
20288;DHT22;10303;51.960;8.372;2023-10-19T11:58:58;21.80;99.90
20288;DHT22;10303;51.960;8.372;2023-10-19T12:01:25;21.90;99.90
20288;DHT22;10303;51.960;8.372;2023-10-19T12:03:52;21.90;99.90
20288;DHT22;10303;51.960;8.372;2023-10-19T12:06:18;21.90;99.90
20288;DHT22;10303;51.960;8.372;2023-10-19T12:08:49;22.00;99.90
20288;DHT22;10303;51.960;8.372;2023-10-19T12:11:15;22.00;99.90
20288;DHT22;10303;51.960;8.372;2023-10-19T12:13:43;22.10;99.90
20288;DHT22;10303;51.960;8.372;2023-10-19T12:16:10;22.10;99.90
20288;DHT22;10303;51.960;8.372;2023-10-19T12:18:41;22.10;99.90
20288;DHT22;10303;51.960;8.372;2023-10-19T12:21:08;22.10;99.90
20288;DHT22;10303;51.960;8.372;2023-10-19T12:23:41;22.20;99.90
20288;DHT22;10303;51.960;8.372;2023-10-19T12:26:09;22.20;99.90
20288;DHT22;10303;51.960;8.372;2023-10-19T12:28:38;22.30;99.90
20288;DHT22;10303;51.960;8.372;2023-10-19T12:31:08;22.30;99.90
20288;DHT22;10303;51.960;8.372;2023-10-19T12:33:35;22.30;99.90
20288;DHT22;10303;51.960;8.372;2023-10-19T12:36:02;22.30;99.90
20288;DHT22;10303;51.960;8.372;2023-10-19T12:38:47;22.20;99.90
20288;DHT22;10303;51.960;8.372;2023-10-19T12:41:13;22.30;99.90
20288;DHT22;10303;51.960;8.372;2023-10-19T12:43:40;22.30;99.90
20288;DHT22;10303;51.960;8.372;2023-10-19T12:46:06;22.30;99.90
20288;DHT22;10303;51.960;8.372;2023-10-19T12:48:34;22.30;99.90
20288;DHT22;10303;51.960;8.372;2023-10-19T12:51:09;22.30;99.90
20288;DHT22;10303;51.960;8.372;2023-10-19T12:53:39;22.30;99.90
20288;DHT22;10303;51.960;8.372;2023-10-19T12:56:05;22.30;99.90
20288;DHT22;10303;51.960;8.372;2023-10-19T12:58:33;22.40;99.90
20288;DHT22;10303;51.960;8.372;2023-10-19T13:01:00;22.40;99.90
20288;DHT22;10303;51.960;8.372;2023-10-19T13:03:26;22.50;99.90
20288;DHT22;10303;51.960;8.372;2023-10-19T13:05:54;22.50;99.90
20288;DHT22;10303;51.960;8.372;2023-10-19T13:08:19;22.60;99.90
20288;DHT22;10303;51.960;8.372;2023-10-19T13:10:47;22.60;99.90
20288;DHT22;10303;51.960;8.372;2023-10-19T13:13:15;22.70;99.90
20288;DHT22;10303;51.960;8.372;2023-10-19T13:15:44;22.80;99.90
20288;DHT22;10303;51.960;8.372;2023-10-19T13:18:12;22.80;99.90
20288;DHT22;10303;51.960;8.372;2023-10-19T13:20:53;22.90;99.90
20288;DHT22;10303;51.960;8.372;2023-10-19T13:23:20;23.00;99.90
20288;DHT22;10303;51.960;8.372;2023-10-19T13:25:50;23.00;99.90
20288;DHT22;10303;51.960;8.372;2023-10-19T13:28:20;23.10;99.90
20288;DHT22;10303;51.960;8.372;2023-10-19T13:30:52;23.10;99.90
20288;DHT22;10303;51.960;8.372;2023-10-19T13:33:19;23.10;99.90
20288;DHT22;10303;51.960;8.372;2023-10-19T13:35:52;23.20;99.90
20288;DHT22;10303;51.960;8.372;2023-10-19T13:38:19;23.20;99.90
20288;DHT22;10303;51.960;8.372;2023-10-19T13:40:49;23.20;99.90
20288;DHT22;10303;51.960;8.372;2023-10-19T13:43:17;23.20;99.90
20288;DHT22;10303;51.960;8.372;2023-10-19T13:45:45;23.30;99.90
20288;DHT22;10303;51.960;8.372;2023-10-19T13:48:13;23.30;99.90
20288;DHT22;10303;51.960;8.372;2023-10-19T13:50:45;23.30;99.90
20288;DHT22;10303;51.960;8.372;2023-10-19T13:53:16;23.30;99.90
20288;DHT22;10303;51.960;8.372;2023-10-19T13:55:42;23.40;99.90
20288;DHT22;10303;51.960;8.372;2023-10-19T13:58:09;23.40;99.90
20288;DHT22;10303;51.960;8.372;2023-10-19T14:00:35;23.30;99.90
20288;DHT22;10303;51.960;8.372;2023-10-19T14:03:11;23.40;99.90
20288;DHT22;10303;51.960;8.372;2023-10-19T14:05:40;23.30;99.90
20288;DHT22;10303;51.960;8.372;2023-10-19T14:08:14;23.30;99.90
20288;DHT22;10303;51.960;8.372;2023-10-19T14:10:42;23.30;99.90
20288;DHT22;10303;51.960;8.372;2023-10-19T14:13:09;23.30;99.90
20288;DHT22;10303;51.960;8.372;2023-10-19T14:15:37;23.30;99.90
20288;DHT22;10303;51.960;8.372;2023-10-19T14:18:04;23.20;99.90
20288;DHT22;10303;51.960;8.372;2023-10-19T14:20:31;23.20;99.90
20288;DHT22;10303;51.960;8.372;2023-10-19T14:23:00;23.10;99.90
20288;DHT22;10303;51.960;8.372;2023-10-19T14:25:27;23.20;99.90
20288;DHT22;10303;51.960;8.372;2023-10-19T14:27:56;23.10;99.90
20288;DHT22;10303;51.960;8.372;2023-10-19T14:30:27;23.10;99.90
20288;DHT22;10303;51.960;8.372;2023-10-19T14:32:56;23.10;99.90
20288;DHT22;10303;51.960;8.372;2023-10-19T14:35:24;23.00;99.90
20288;DHT22;10303;51.960;8.372;2023-10-19T14:37:55;23.00;99.90
20288;DHT22;10303;51.960;8.372;2023-10-19T14:40:24;23.00;99.90
20288;DHT22;10303;51.960;8.372;2023-10-19T14:42:52;23.00;99.90
20288;DHT22;10303;51.960;8.372;2023-10-19T14:45:21;23.00;99.90
20288;DHT22;10303;51.960;8.372;2023-10-19T14:47:54;22.90;99.90
20288;DHT22;10303;51.960;8.372;2023-10-19T14:50:23;22.90;99.90
20288;DHT22;10303;51.960;8.372;2023-10-19T14:52:51;22.80;99.90
20288;DHT22;10303;51.960;8.372;2023-10-19T14:55:18;22.80;99.90
20288;DHT22;10303;51.960;8.372;2023-10-19T14:57:46;22.80;99.90
20288;DHT22;10303;51.960;8.372;2023-10-19T15:00:24;22.80;99.90
20288;DHT22;10303;51.960;8.372;2023-10-19T15:02:57;22.70;99.90
20288;DHT22;10303;51.960;8.372;2023-10-19T15:05:29;22.70;99.90
20288;DHT22;10303;51.960;8.372;2023-10-19T15:07:55;22.70;99.90
20288;DHT22;10303;51.960;8.372;2023-10-19T15:10:26;22.60;99.90
20288;DHT22;10303;51.960;8.372;2023-10-19T15:12:56;22.60;99.90
20288;DHT22;10303;51.960;8.372;2023-10-19T15:15:25;22.60;99.90
20288;DHT22;10303;51.960;8.372;2023-10-19T15:17:51;22.50;99.90
20288;DHT22;10303;51.960;8.372;2023-10-19T15:20:19;22.50;99.90
20288;DHT22;10303;51.960;8.372;2023-10-19T15:22:48;22.40;99.90
20288;DHT22;10303;51.960;8.372;2023-10-19T15:25:14;22.40;99.90
20288;DHT22;10303;51.960;8.372;2023-10-19T15:27:44;22.40;99.90
20288;DHT22;10303;51.960;8.372;2023-10-19T15:30:11;22.30;99.90
20288;DHT22;10303;51.960;8.372;2023-10-19T15:32:38;22.30;99.90
20288;DHT22;10303;51.960;8.372;2023-10-19T15:35:09;22.30;99.90
20288;DHT22;10303;51.960;8.372;2023-10-19T15:37:36;22.20;99.90
20288;DHT22;10303;51.960;8.372;2023-10-19T15:40:02;22.20;99.90
20288;DHT22;10303;51.960;8.372;2023-10-19T15:42:29;22.10;99.90
20288;DHT22;10303;51.960;8.372;2023-10-19T15:44:56;22.10;99.90
20288;DHT22;10303;51.960;8.372;2023-10-19T15:47:22;22.10;99.90
20288;DHT22;10303;51.960;8.372;2023-10-19T15:49:51;22.00;99.90
20288;DHT22;10303;51.960;8.372;2023-10-19T15:52:26;22.00;99.90
20288;DHT22;10303;51.960;8.372;2023-10-19T15:54:57;21.90;99.90
20288;DHT22;10303;51.960;8.372;2023-10-19T15:57:24;21.90;99.90
20288;DHT22;10303;51.960;8.372;2023-10-19T15:59:50;21.80;99.90
20288;DHT22;10303;51.960;8.372;2023-10-19T16:02:17;21.80;99.90
20288;DHT22;10303;51.960;8.372;2023-10-19T16:04:46;21.80;99.90
20288;DHT22;10303;51.960;8.372;2023-10-19T16:07:14;21.70;99.90